createdAt,value
2023-02-28T00:00:07.567Z,0.00
2023-02-28T00:01:07.571Z,0.00
2023-02-28T00:02:07.662Z,0.00
2023-02-28T00:03:07.628Z,0.00
2023-02-28T00:04:07.520Z,0.00
2023-02-28T00:05:07.528Z,0.00
2023-02-28T00:06:07.496Z,0.00
2023-02-28T00:07:07.531Z,0.00
2023-02-28T00:08:07.527Z,0.00
2023-02-28T00:09:07.485Z,0.00
2023-02-28T00:10:07.458Z,0.00
2023-02-28T00:11:07.479Z,0.00
2023-02-28T00:12:07.435Z,0.00
2023-02-28T00:13:07.438Z,0.00
2023-02-28T00:14:08.151Z,0.00
2023-02-28T00:15:07.410Z,0.00
2023-02-28T00:16:07.363Z,0.00
2023-02-28T00:17:07.415Z,0.00
2023-02-28T00:18:07.343Z,0.00
2023-02-28T00:19:07.378Z,0.00
2023-02-28T00:20:07.323Z,0.00
2023-02-28T00:21:07.331Z,0.00
2023-02-28T00:22:07.292Z,0.00
2023-02-28T00:23:07.341Z,0.00
2023-02-28T00:24:07.280Z,0.00
2023-02-28T00:25:07.291Z,0.00
2023-02-28T00:26:07.238Z,0.00
2023-02-28T00:27:07.259Z,0.00
2023-02-28T00:28:07.243Z,0.00
2023-02-28T00:29:07.259Z,0.00
2023-02-28T00:30:07.194Z,0.00
2023-02-28T00:31:07.254Z,0.00
2023-02-28T00:32:07.206Z,0.00
2023-02-28T00:33:07.210Z,0.00
2023-02-28T00:34:07.144Z,0.00
2023-02-28T00:35:07.161Z,0.00
2023-02-28T00:36:07.137Z,0.00
2023-02-28T00:37:07.134Z,0.00
2023-02-28T00:38:07.098Z,0.00
2023-02-28T00:39:07.128Z,0.00
2023-02-28T00:40:07.076Z,0.00
2023-02-28T00:41:07.089Z,0.00
2023-02-28T00:42:07.042Z,0.00
2023-02-28T00:43:07.090Z,0.00
2023-02-28T00:44:07.026Z,0.00
2023-02-28T00:45:07.084Z,0.00
2023-02-28T00:46:07.080Z,0.00
2023-02-28T00:47:07.017Z,0.00
2023-02-28T00:48:06.976Z,0.00
2023-02-28T00:49:06.982Z,0.00
2023-02-28T00:50:07.001Z,0.00
2023-02-28T00:51:06.960Z,0.00
2023-02-28T00:52:06.919Z,0.00
2023-02-28T00:53:06.933Z,0.00
2023-02-28T00:54:06.901Z,0.00
2023-02-28T00:55:06.929Z,0.00
2023-02-28T00:56:06.876Z,0.00
2023-02-28T00:57:06.887Z,0.00
2023-02-28T00:58:06.846Z,0.00
2023-02-28T00:59:06.890Z,0.00
2023-02-28T01:00:06.817Z,0.00
2023-02-28T01:01:06.887Z,0.00
2023-02-28T01:02:06.793Z,0.00
2023-02-28T01:03:06.796Z,0.00
2023-02-28T01:04:06.822Z,0.00
2023-02-28T01:05:06.803Z,0.00
2023-02-28T01:06:06.764Z,0.00
2023-02-28T01:07:06.756Z,0.00
2023-02-28T01:08:06.735Z,0.00
2023-02-28T01:09:06.730Z,0.00
2023-02-28T01:10:06.707Z,0.00
2023-02-28T01:11:06.738Z,0.00
2023-02-28T01:12:06.708Z,0.00
2023-02-28T01:13:06.687Z,0.00
2023-02-28T01:14:06.654Z,0.00
2023-02-28T01:15:06.648Z,0.00
2023-02-28T01:16:06.679Z,0.00
2023-02-28T01:17:06.647Z,0.00
2023-02-28T01:18:06.636Z,0.00
2023-02-28T01:19:06.653Z,0.00
2023-02-28T01:20:06.587Z,0.00
2023-02-28T01:21:06.576Z,0.00
2023-02-28T01:22:06.549Z,0.00
2023-02-28T01:23:06.542Z,0.00
2023-02-28T01:24:06.542Z,0.00
2023-02-28T01:25:06.531Z,0.00
2023-02-28T01:26:06.551Z,0.00
2023-02-28T01:27:06.527Z,0.00
2023-02-28T01:28:06.470Z,0.00
2023-02-28T01:29:06.528Z,0.00
2023-02-28T01:30:06.448Z,0.00
2023-02-28T01:31:06.478Z,0.00
2023-02-28T01:32:06.466Z,0.00
2023-02-28T01:33:06.476Z,0.00
2023-02-28T01:34:06.417Z,0.00
2023-02-28T01:35:06.414Z,0.00
2023-02-28T01:36:06.433Z,0.00
2023-02-28T01:37:06.397Z,0.00
2023-02-28T01:38:20.898Z,0.00
2023-02-28T01:39:07.389Z,0.00
2023-02-28T01:40:06.357Z,0.00
2023-02-28T01:41:06.343Z,0.00
2023-02-28T01:42:06.287Z,0.00
2023-02-28T01:43:06.306Z,0.00
2023-02-28T01:44:06.294Z,0.00
2023-02-28T01:45:06.311Z,0.00
2023-02-28T01:46:06.325Z,0.00
2023-02-28T01:47:06.264Z,0.00
2023-02-28T01:48:06.213Z,0.00
2023-02-28T01:49:06.230Z,0.00
2023-02-28T01:50:06.201Z,0.00
2023-02-28T01:51:06.195Z,0.00
2023-02-28T01:52:06.219Z,0.00
2023-02-28T01:53:06.190Z,0.00
2023-02-28T01:54:06.145Z,0.00
2023-02-28T01:55:06.171Z,0.00
2023-02-28T01:56:06.138Z,0.00
2023-02-28T01:57:06.129Z,0.00
2023-02-28T01:58:06.111Z,0.00
2023-02-28T01:59:06.121Z,0.00
2023-02-28T02:00:06.112Z,0.00
2023-02-28T02:01:06.068Z,0.00
2023-02-28T02:02:06.119Z,0.00
2023-02-28T02:03:06.178Z,0.00
2023-02-28T02:04:06.013Z,0.00
2023-02-28T02:05:06.030Z,0.00
2023-02-28T02:06:06.019Z,0.00
2023-02-28T02:07:06.006Z,0.00
2023-02-28T02:08:05.960Z,0.00
2023-02-28T02:09:05.996Z,0.00
2023-02-28T02:10:05.934Z,0.00
2023-02-28T02:11:05.947Z,0.00
2023-02-28T02:12:05.956Z,0.00
2023-02-28T02:13:13.026Z,0.00
2023-02-28T02:14:05.922Z,0.00
2023-02-28T02:15:06.752Z,0.00
2023-02-28T02:16:06.690Z,0.00
2023-02-28T02:17:05.861Z,0.00
2023-02-28T02:18:05.963Z,0.00
2023-02-28T02:19:05.827Z,0.00
2023-02-28T02:20:05.881Z,0.00
2023-02-28T02:21:05.796Z,0.00
2023-02-28T02:22:05.842Z,0.00
2023-02-28T02:23:05.791Z,0.00
2023-02-28T02:24:05.839Z,0.00
2023-02-28T02:25:05.783Z,0.00
2023-02-28T02:26:05.762Z,0.00
2023-02-28T02:27:05.721Z,0.00
2023-02-28T02:28:05.783Z,0.00
2023-02-28T02:29:05.720Z,0.00
2023-02-28T02:30:05.742Z,0.00
2023-02-28T02:31:05.725Z,0.00
2023-02-28T02:32:05.698Z,0.00
2023-02-28T02:33:05.675Z,0.00
2023-02-28T02:34:05.676Z,0.00
2023-02-28T02:35:05.712Z,0.00
2023-02-28T02:36:05.788Z,0.00
2023-02-28T02:37:05.613Z,0.00
2023-02-28T02:38:05.631Z,0.00
2023-02-28T02:39:05.603Z,0.00
2023-02-28T02:40:06.573Z,0.00
2023-02-28T02:41:05.563Z,0.00
2023-02-28T02:42:05.616Z,0.00
2023-02-28T02:43:05.535Z,0.00
2023-02-28T02:44:05.532Z,0.00
2023-02-28T02:45:05.507Z,0.00
2023-02-28T02:46:05.512Z,0.00
2023-02-28T02:47:05.523Z,0.00
2023-02-28T02:48:05.480Z,0.00
2023-02-28T02:49:05.448Z,0.00
2023-02-28T02:50:05.472Z,0.00
2023-02-28T02:51:05.428Z,0.00
2023-02-28T02:52:05.427Z,0.00
2023-02-28T02:53:05.423Z,0.00
2023-02-28T02:54:05.426Z,0.00
2023-02-28T02:55:05.377Z,0.00
2023-02-28T02:56:05.386Z,0.00
2023-02-28T02:57:05.360Z,0.00
2023-02-28T02:58:05.453Z,0.00
2023-02-28T02:59:05.370Z,0.00
2023-02-28T03:00:05.691Z,0.00
2023-02-28T03:01:05.345Z,0.00
2023-02-28T03:02:05.330Z,0.00
2023-02-28T03:03:05.281Z,0.00
2023-02-28T03:04:05.314Z,0.00
2023-02-28T03:05:05.301Z,0.00
2023-02-28T03:06:05.322Z,0.00
2023-02-28T03:07:05.240Z,0.00
2023-02-28T03:08:05.253Z,0.00
2023-02-28T03:09:05.208Z,0.00
2023-02-28T03:10:05.229Z,0.00
2023-02-28T03:11:05.176Z,0.00
2023-02-28T03:12:05.239Z,0.00
2023-02-28T03:13:05.156Z,0.00
2023-02-28T03:14:05.171Z,0.00
2023-02-28T03:15:05.136Z,0.00
2023-02-28T03:16:05.159Z,0.00
2023-02-28T03:17:05.131Z,0.00
2023-02-28T03:18:05.120Z,0.00
2023-02-28T03:19:05.089Z,0.00
2023-02-28T03:20:06.504Z,0.00
2023-02-28T03:21:05.071Z,0.00
2023-02-28T03:22:05.112Z,0.00
2023-02-28T03:23:05.050Z,0.00
2023-02-28T03:24:05.055Z,0.00
2023-02-28T03:25:05.015Z,0.00
2023-02-28T03:26:05.044Z,0.00
2023-02-28T03:27:04.979Z,0.00
2023-02-28T03:28:05.013Z,0.00
2023-02-28T03:29:04.987Z,0.00
2023-02-28T03:30:04.960Z,0.00
2023-02-28T03:31:04.937Z,0.00
2023-02-28T03:32:05.094Z,0.00
2023-02-28T03:33:04.986Z,0.00
2023-02-28T03:34:05.208Z,0.00
2023-02-28T03:35:04.968Z,0.00
2023-02-28T03:36:04.925Z,0.00
2023-02-28T03:37:04.915Z,0.00
2023-02-28T03:38:04.893Z,0.00
2023-02-28T03:39:04.853Z,0.00
2023-02-28T03:40:04.872Z,0.00
2023-02-28T03:41:04.856Z,0.00
2023-02-28T03:42:04.823Z,0.00
2023-02-28T03:43:04.881Z,0.00
2023-02-28T03:44:04.816Z,0.00
2023-02-28T03:45:04.875Z,0.00
2023-02-28T03:46:04.887Z,0.00
2023-02-28T03:47:04.745Z,0.00
2023-02-28T03:48:04.782Z,0.00
2023-02-28T03:49:04.781Z,0.00
2023-02-28T03:50:04.730Z,0.00
2023-02-28T03:51:05.684Z,0.00
2023-02-28T03:52:04.717Z,0.00
2023-02-28T03:53:04.658Z,0.00
2023-02-28T03:54:04.699Z,0.00
2023-02-28T03:55:05.396Z,0.00
2023-02-28T03:56:04.707Z,0.00
2023-02-28T03:57:04.643Z,0.00
2023-02-28T03:58:04.639Z,0.00
2023-02-28T03:59:04.592Z,0.00
2023-02-28T04:00:04.643Z,0.00
2023-02-28T04:01:04.632Z,0.00
2023-02-28T04:02:04.618Z,0.00
2023-02-28T04:03:04.579Z,0.00
2023-02-28T04:04:04.604Z,0.00
2023-02-28T04:05:04.516Z,0.00
2023-02-28T04:06:04.526Z,0.00
2023-02-28T04:07:04.561Z,0.00
2023-02-28T04:08:04.502Z,0.00
2023-02-28T04:09:04.462Z,0.00
2023-02-28T04:10:04.486Z,0.00
2023-02-28T04:11:04.478Z,0.00
2023-02-28T04:12:04.468Z,0.00
2023-02-28T04:13:04.463Z,0.00
2023-02-28T04:14:04.412Z,0.00
2023-02-28T04:15:04.405Z,0.00
2023-02-28T04:16:04.445Z,0.00
2023-02-28T04:17:04.440Z,0.00
2023-02-28T04:18:04.365Z,0.00
2023-02-28T04:19:04.403Z,0.00
2023-02-28T04:20:04.348Z,0.00
2023-02-28T04:21:04.337Z,0.00
2023-02-28T04:22:04.341Z,0.00
2023-02-28T04:23:04.345Z,0.00
2023-02-28T04:24:04.305Z,0.00
2023-02-28T04:25:04.333Z,0.00
2023-02-28T04:26:04.272Z,0.00
2023-02-28T04:27:04.236Z,0.00
2023-02-28T04:28:04.267Z,0.00
2023-02-28T04:29:04.220Z,0.00
2023-02-28T04:30:04.312Z,0.00
2023-02-28T04:31:04.221Z,0.00
2023-02-28T04:32:04.348Z,0.00
2023-02-28T04:33:04.153Z,0.00
2023-02-28T04:34:04.192Z,0.00
2023-02-28T04:35:04.181Z,0.00
2023-02-28T04:36:04.204Z,0.00
2023-02-28T04:37:13.431Z,0.00
2023-02-28T04:38:05.146Z,0.00
2023-02-28T04:39:04.101Z,0.00
2023-02-28T04:40:05.097Z,0.00
2023-02-28T04:41:04.062Z,0.00
2023-02-28T04:42:04.096Z,0.00
2023-02-28T04:43:04.090Z,0.00
2023-02-28T04:44:04.117Z,0.00
2023-02-28T04:45:04.058Z,0.00
2023-02-28T04:46:04.861Z,0.00
2023-02-28T04:47:03.981Z,0.00
2023-02-28T04:48:04.009Z,0.00
2023-02-28T04:49:03.968Z,0.00
2023-02-28T04:50:04.040Z,0.00
2023-02-28T04:51:04.007Z,0.00
2023-02-28T04:52:03.962Z,0.00
2023-02-28T04:53:03.962Z,0.00
2023-02-28T04:54:03.909Z,0.00
2023-02-28T04:55:03.937Z,0.00
2023-02-28T04:56:03.906Z,0.00
2023-02-28T04:57:03.854Z,0.00
2023-02-28T04:58:03.931Z,0.00
2023-02-28T04:59:03.888Z,0.00
2023-02-28T05:00:03.849Z,0.00
2023-02-28T05:01:03.803Z,0.00
2023-02-28T05:02:04.613Z,0.00
2023-02-28T05:03:03.820Z,0.00
2023-02-28T05:04:03.790Z,0.00
2023-02-28T05:05:04.556Z,0.00
2023-02-28T05:06:03.766Z,0.00
2023-02-28T05:07:03.737Z,0.00
2023-02-28T05:08:06.505Z,0.00
2023-02-28T05:09:04.236Z,0.00
2023-02-28T05:10:04.148Z,0.00
2023-02-28T05:11:03.692Z,0.00
2023-02-28T05:12:03.953Z,0.00
2023-02-28T05:13:03.677Z,0.00
2023-02-28T05:14:03.673Z,0.00
2023-02-28T05:15:03.657Z,0.00
2023-02-28T05:16:03.691Z,0.00
2023-02-28T05:17:03.605Z,0.00
2023-02-28T05:18:03.640Z,0.00
2023-02-28T05:19:03.699Z,0.00
2023-02-28T05:20:14.823Z,0.00
2023-02-28T05:21:04.597Z,0.00
2023-02-28T05:22:03.602Z,0.00
2023-02-28T05:23:03.528Z,0.00
2023-02-28T05:24:03.587Z,0.00
2023-02-28T05:25:03.534Z,0.00
2023-02-28T05:26:03.598Z,0.00
2023-02-28T05:27:05.287Z,0.00
2023-02-28T05:28:04.442Z,0.00
2023-02-28T05:29:03.456Z,0.00
2023-02-28T05:30:04.473Z,0.00
2023-02-28T05:31:03.520Z,0.00
2023-02-28T05:32:03.582Z,0.00
2023-02-28T05:33:03.400Z,0.00
2023-02-28T05:34:03.455Z,0.00
2023-02-28T05:35:03.404Z,0.00
2023-02-28T05:36:03.780Z,0.00
2023-02-28T05:37:03.428Z,0.00
2023-02-28T05:38:03.387Z,0.00
2023-02-28T05:39:03.380Z,0.00
2023-02-28T05:40:03.380Z,0.00
2023-02-28T05:41:03.358Z,0.00
2023-02-28T05:42:03.278Z,1.00
2023-02-28T05:43:03.452Z,0.00
2023-02-28T05:44:03.338Z,0.00
2023-02-28T05:45:03.325Z,0.00
2023-02-28T05:46:04.219Z,1.00
2023-02-28T05:47:03.203Z,1.00
2023-02-28T05:48:03.306Z,0.00
2023-02-28T05:49:03.264Z,0.00
2023-02-28T05:50:03.238Z,0.00
2023-02-28T05:51:03.195Z,0.00
2023-02-28T05:52:03.159Z,1.00
2023-02-28T05:53:03.158Z,0.00
2023-02-28T05:54:04.187Z,0.00
2023-02-28T05:55:03.158Z,5.00
2023-02-28T05:56:03.097Z,5.00
2023-02-28T05:57:06.165Z,4.00
2023-02-28T05:58:04.078Z,2.00
2023-02-28T05:59:03.363Z,5.00
2023-02-28T06:00:03.048Z,2.00
2023-02-28T06:01:03.945Z,2.00
2023-02-28T06:02:03.135Z,3.00
2023-02-28T06:03:03.172Z,4.00
2023-02-28T06:04:02.995Z,5.00
2023-02-28T06:05:03.018Z,8.00
2023-02-28T06:06:04.493Z,8.00
2023-02-28T06:07:02.954Z,14.00
2023-02-28T06:08:02.970Z,11.00
2023-02-28T06:09:02.945Z,13.00
2023-02-28T06:10:02.923Z,15.00
2023-02-28T06:11:02.916Z,23.00
2023-02-28T06:12:02.930Z,21.00
2023-02-28T06:13:02.893Z,21.00
2023-02-28T06:14:02.900Z,23.00
2023-02-28T06:15:02.883Z,25.00
2023-02-28T06:16:02.839Z,25.00
2023-02-28T06:17:02.920Z,28.00
2023-02-28T06:18:02.880Z,36.00
2023-02-28T06:19:02.857Z,37.00
2023-02-28T06:20:02.837Z,36.00
2023-02-28T06:21:02.888Z,35.00
2023-02-28T06:22:02.786Z,35.00
2023-02-28T06:23:02.858Z,31.00
2023-02-28T06:24:03.829Z,37.00
2023-02-28T06:25:02.767Z,35.00
2023-02-28T06:26:02.737Z,37.00
2023-02-28T06:27:02.741Z,44.00
2023-02-28T06:28:02.706Z,47.00
2023-02-28T06:29:02.687Z,49.00
2023-02-28T06:30:02.664Z,54.00
2023-02-28T06:31:03.479Z,53.00
2023-02-28T06:32:02.685Z,55.00
2023-02-28T06:33:02.679Z,53.00
2023-02-28T06:34:02.640Z,51.00
2023-02-28T06:35:03.621Z,52.00
2023-02-28T06:36:03.657Z,55.00
2023-02-28T06:37:02.667Z,53.00
2023-02-28T06:38:02.579Z,54.00
2023-02-28T06:39:02.655Z,53.00
2023-02-28T06:40:02.536Z,58.00
2023-02-28T06:41:02.558Z,78.00
2023-02-28T06:42:03.317Z,69.00
2023-02-28T06:43:02.615Z,65.00
2023-02-28T06:44:02.480Z,68.00
2023-02-28T06:45:02.575Z,69.00
2023-02-28T06:46:02.552Z,77.00
2023-02-28T06:47:02.506Z,83.00
2023-02-28T06:48:02.507Z,86.00
2023-02-28T06:49:02.475Z,85.00
2023-02-28T06:50:02.423Z,86.00
2023-02-28T06:51:02.424Z,89.00
2023-02-28T06:52:02.381Z,96.00
2023-02-28T06:53:02.423Z,102.00
2023-02-28T06:54:02.353Z,104.00
2023-02-28T06:55:02.379Z,94.00
2023-02-28T06:56:02.388Z,103.00
2023-02-28T06:57:02.398Z,111.00
2023-02-28T06:58:02.349Z,107.00
2023-02-28T06:59:03.320Z,120.00
2023-02-28T07:00:02.423Z,123.00
2023-02-28T07:01:02.287Z,120.00
2023-02-28T07:02:02.302Z,123.00
2023-02-28T07:03:02.284Z,112.00
2023-02-28T07:04:02.225Z,122.00
2023-02-28T07:05:02.322Z,147.00
2023-02-28T07:06:02.226Z,172.00
2023-02-28T07:07:02.268Z,162.00
2023-02-28T07:08:02.227Z,133.00
2023-02-28T07:09:02.192Z,147.00
2023-02-28T07:10:02.161Z,171.00
2023-02-28T07:11:02.235Z,152.00
2023-02-28T07:12:03.081Z,143.00
2023-02-28T07:13:02.168Z,135.00
2023-02-28T07:14:02.105Z,136.00
2023-02-28T07:15:02.129Z,132.00
2023-02-28T07:16:02.149Z,157.00
2023-02-28T07:17:02.108Z,172.00
2023-02-28T07:18:02.046Z,156.00
2023-02-28T07:19:02.101Z,117.00
2023-02-28T07:20:02.096Z,130.00
2023-02-28T07:21:02.044Z,152.00
2023-02-28T07:22:02.061Z,186.00
2023-02-28T07:23:02.049Z,203.00
2023-02-28T07:24:02.025Z,206.00
2023-02-28T07:25:02.040Z,199.00
2023-02-28T07:26:02.892Z,208.00
2023-02-28T07:27:02.703Z,195.00
2023-02-28T07:28:02.022Z,196.00
2023-02-28T07:29:01.998Z,196.00
2023-02-28T07:30:01.890Z,217.00
2023-02-28T07:31:01.923Z,217.00
2023-02-28T07:32:02.700Z,220.00
2023-02-28T07:33:01.931Z,214.00
2023-02-28T07:34:01.846Z,215.00
2023-02-28T07:35:01.893Z,240.00
2023-02-28T07:36:02.807Z,240.00
2023-02-28T07:37:02.593Z,236.00
2023-02-28T07:38:01.794Z,252.00
2023-02-28T07:39:01.874Z,260.00
2023-02-28T07:40:01.797Z,243.00
2023-02-28T07:41:01.806Z,236.00
2023-02-28T07:42:01.746Z,231.00
2023-02-28T07:43:01.805Z,233.00
2023-02-28T07:44:01.736Z,236.00
2023-02-28T07:45:01.767Z,238.00
2023-02-28T07:46:01.705Z,260.00
2023-02-28T07:47:01.777Z,262.00
2023-02-28T07:48:01.703Z,262.00
2023-02-28T07:49:01.763Z,255.00
2023-02-28T07:50:01.645Z,265.00
2023-02-28T07:51:01.822Z,264.00
2023-02-28T07:52:01.682Z,300.00
2023-02-28T07:53:01.690Z,345.00
2023-02-28T07:54:01.617Z,322.00
2023-02-28T07:55:02.669Z,299.00
2023-02-28T07:56:01.562Z,267.00
2023-02-28T07:57:01.633Z,254.00
2023-02-28T07:58:01.691Z,244.00
2023-02-28T07:59:01.550Z,272.00
2023-02-28T08:00:02.521Z,303.00
2023-02-28T08:01:01.620Z,321.00
2023-02-28T08:02:02.314Z,339.00
2023-02-28T08:03:01.533Z,362.00
2023-02-28T08:04:01.478Z,395.00
2023-02-28T08:05:02.422Z,384.00
2023-02-28T08:06:01.469Z,367.00
2023-02-28T08:07:02.421Z,340.00
2023-02-28T08:08:01.618Z,359.00
2023-02-28T08:09:01.439Z,369.00
2023-02-28T08:10:01.399Z,343.00
2023-02-28T08:11:01.488Z,341.00
2023-02-28T08:12:01.744Z,317.00
2023-02-28T08:13:01.376Z,340.00
2023-02-28T08:14:08.422Z,348.00
2023-02-28T08:15:01.351Z,329.00
2023-02-28T08:16:01.335Z,356.00
2023-02-28T08:17:01.326Z,392.00
2023-02-28T08:18:01.295Z,402.00
2023-02-28T08:19:01.341Z,407.00
2023-02-28T08:20:01.301Z,444.00
2023-02-28T08:21:01.282Z,459.00
2023-02-28T08:22:01.237Z,490.00
2023-02-28T08:23:01.242Z,458.00
2023-02-28T08:24:01.236Z,434.00
2023-02-28T08:25:01.268Z,435.00
2023-02-28T08:26:01.189Z,454.00
2023-02-28T08:27:01.261Z,478.00
2023-02-28T08:28:01.154Z,448.00
2023-02-28T08:29:01.804Z,426.00
2023-02-28T08:30:01.156Z,448.00
2023-02-28T08:31:01.152Z,459.00
2023-02-28T08:32:01.269Z,461.00
2023-02-28T08:33:01.141Z,474.00
2023-02-28T08:34:01.112Z,533.00
2023-02-28T08:35:01.158Z,536.00
2023-02-28T08:36:01.158Z,506.00
2023-02-28T08:37:01.072Z,496.00
2023-02-28T08:38:01.033Z,489.00
2023-02-28T08:39:01.061Z,472.00
2023-02-28T08:40:01.012Z,505.00
2023-02-28T08:41:01.043Z,516.00
2023-02-28T08:42:08.314Z,518.00
2023-02-28T08:43:02.018Z,520.00
2023-02-28T08:44:00.957Z,509.00
2023-02-28T08:45:00.978Z,509.00
2023-02-28T08:46:00.983Z,537.00
2023-02-28T08:47:00.971Z,548.00
2023-02-28T08:48:00.903Z,569.00
2023-02-28T08:49:00.922Z,604.00
2023-02-28T08:50:00.893Z,609.00
2023-02-28T08:51:07.160Z,584.00
2023-02-28T08:52:01.876Z,553.00
2023-02-28T08:53:00.864Z,548.00
2023-02-28T08:54:00.832Z,558.00
2023-02-28T08:55:00.847Z,549.00
2023-02-28T08:56:00.801Z,569.00
2023-02-28T08:57:00.821Z,619.00
2023-02-28T08:58:00.771Z,618.00
2023-02-28T08:59:00.781Z,644.00
2023-02-28T09:00:00.793Z,646.00
2023-02-28T09:01:00.778Z,645.00
2023-02-28T09:02:00.736Z,647.00
2023-02-28T09:03:00.725Z,701.00
2023-02-28T09:04:00.710Z,706.00
2023-02-28T09:05:00.736Z,627.00
2023-02-28T09:06:00.677Z,628.00
2023-02-28T09:07:00.694Z,602.00
2023-02-28T09:08:00.648Z,559.00
2023-02-28T09:09:00.676Z,563.00
2023-02-28T09:10:00.662Z,557.00
2023-02-28T09:11:02.275Z,566.00
2023-02-28T09:12:00.599Z,648.00
2023-02-28T09:13:00.616Z,654.00
2023-02-28T09:14:00.572Z,646.00
2023-02-28T09:15:00.592Z,655.00
2023-02-28T09:16:00.590Z,682.00
2023-02-28T09:17:00.629Z,715.00
2023-02-28T09:18:00.530Z,681.00
2023-02-28T09:19:00.533Z,638.00
2023-02-28T09:20:00.513Z,652.00
2023-02-28T09:21:00.549Z,702.00
2023-02-28T09:22:00.496Z,719.00
2023-02-28T09:23:00.483Z,793.00
2023-02-28T09:24:00.436Z,786.00
2023-02-28T09:25:00.453Z,758.00
2023-02-28T09:26:00.416Z,792.00
2023-02-28T09:27:04.900Z,842.00
2023-02-28T09:28:01.415Z,789.00
2023-02-28T09:29:00.403Z,744.00
2023-02-28T09:30:00.383Z,779.00
2023-02-28T09:31:00.422Z,779.00
2023-02-28T09:32:00.390Z,814.00
2023-02-28T09:33:00.342Z,833.00
2023-02-28T09:34:00.527Z,767.00
2023-02-28T09:35:00.321Z,779.00
2023-02-28T09:36:00.371Z,812.00
2023-02-28T09:37:00.356Z,839.00
2023-02-28T09:38:00.331Z,900.00
2023-02-28T09:39:00.290Z,988.00
2023-02-28T09:40:00.277Z,964.00
2023-02-28T09:41:00.244Z,913.00
2023-02-28T09:42:00.215Z,933.00
2023-02-28T09:43:00.227Z,974.00
2023-02-28T09:44:00.186Z,958.00
2023-02-28T09:45:00.235Z,909.00
2023-02-28T09:46:00.202Z,882.00
2023-02-28T09:47:00.190Z,871.00
2023-02-28T09:48:00.135Z,894.00
2023-02-28T09:49:00.164Z,888.00
2023-02-28T09:50:00.117Z,896.00
2023-02-28T09:51:00.132Z,841.00
2023-02-28T09:52:00.089Z,794.00
2023-02-28T09:53:00.131Z,750.00
2023-02-28T09:54:02.174Z,780.00
2023-02-28T09:55:00.093Z,788.00
2023-02-28T09:56:00.047Z,837.00
2023-02-28T09:57:00.123Z,935.00
2023-02-28T09:58:00.008Z,988.00
2023-02-28T09:59:00.027Z,964.00
2023-02-28T09:59:59.977Z,925.00
2023-02-28T10:01:00.046Z,842.00
2023-02-28T10:01:59.966Z,838.00
2023-02-28T10:03:00.005Z,855.00
2023-02-28T10:03:59.935Z,844.00
2023-02-28T10:04:59.982Z,901.00
2023-02-28T10:05:59.904Z,922.00
2023-02-28T10:06:59.933Z,942.00
2023-02-28T10:07:59.891Z,1010.00
2023-02-28T10:08:59.882Z,1090.00
2023-02-28T10:09:59.933Z,1026.00
2023-02-28T10:10:59.877Z,934.00
2023-02-28T10:11:59.853Z,968.00
2023-02-28T10:12:59.857Z,973.00
2023-02-28T10:13:59.819Z,1024.00
2023-02-28T10:14:59.833Z,1025.00
2023-02-28T10:15:59.802Z,974.00
2023-02-28T10:16:59.835Z,974.00
2023-02-28T10:18:08.440Z,1028.00
2023-02-28T10:19:00.775Z,1118.00
2023-02-28T10:19:59.737Z,1198.00
2023-02-28T10:20:59.744Z,1082.00
2023-02-28T10:21:59.714Z,940.00
2023-02-28T10:22:59.747Z,967.00
2023-02-28T10:23:59.705Z,1005.00
2023-02-28T10:24:59.701Z,957.00
2023-02-28T10:25:59.663Z,1001.00
2023-02-28T10:26:59.658Z,1145.00
2023-02-28T10:27:59.641Z,1139.00
2023-02-28T10:28:59.680Z,1052.00
2023-02-28T10:29:59.608Z,1003.00
2023-02-28T10:30:59.680Z,975.00
2023-02-28T10:31:59.580Z,921.00
2023-02-28T10:32:59.607Z,1055.00
2023-02-28T10:33:59.591Z,1326.00
2023-02-28T10:34:59.590Z,1214.00
2023-02-28T10:35:59.574Z,1152.00
2023-02-28T10:36:59.546Z,1207.00
2023-02-28T10:37:59.558Z,1101.00
2023-02-28T10:38:59.522Z,1056.00
2023-02-28T10:39:59.558Z,997.00
2023-02-28T10:40:59.472Z,1061.00
2023-02-28T10:41:59.474Z,1088.00
2023-02-28T10:42:59.483Z,1022.00
2023-02-28T10:43:59.473Z,975.00
2023-02-28T10:44:59.422Z,972.00
2023-02-28T10:45:59.518Z,1102.00
2023-02-28T10:46:59.392Z,1227.00
2023-02-28T10:47:59.410Z,1226.00
2023-02-28T10:48:59.392Z,1166.00
2023-02-28T10:49:59.378Z,1103.00
2023-02-28T10:50:59.390Z,1006.00
2023-02-28T10:51:59.462Z,910.00
2023-02-28T10:52:59.328Z,940.00
2023-02-28T10:54:02.042Z,974.00
2023-02-28T10:54:59.296Z,1089.00
2023-02-28T10:55:59.294Z,1153.00
2023-02-28T10:56:59.295Z,1251.00
2023-02-28T10:57:59.324Z,1396.00
2023-02-28T10:58:59.253Z,1216.00
2023-02-28T10:59:59.272Z,1332.00
2023-02-28T11:00:59.223Z,1394.00
2023-02-28T11:01:59.313Z,1290.00
2023-02-28T11:02:59.189Z,1217.00
2023-02-28T11:03:59.196Z,1094.00
2023-02-28T11:04:59.217Z,955.00
2023-02-28T11:05:59.206Z,885.00
2023-02-28T11:06:59.165Z,960.00
2023-02-28T11:07:59.164Z,961.00
2023-02-28T11:08:59.113Z,903.00
2023-02-28T11:09:59.133Z,848.00
2023-02-28T11:10:59.096Z,831.00
2023-02-28T11:11:59.156Z,786.00
2023-02-28T11:13:00.885Z,808.00
2023-02-28T11:13:59.099Z,828.00
2023-02-28T11:14:59.055Z,842.00
2023-02-28T11:15:59.149Z,814.00
2023-02-28T11:16:59.017Z,834.00
2023-02-28T11:17:59.078Z,832.00
2023-02-28T11:18:58.988Z,871.00
2023-02-28T11:19:58.992Z,863.00
2023-02-28T11:20:58.985Z,828.00
2023-02-28T11:21:59.007Z,852.00
2023-02-28T11:22:58.946Z,852.00
2023-02-28T11:23:58.943Z,852.00
2023-02-28T11:24:58.926Z,831.00
2023-02-28T11:25:58.942Z,855.00
2023-02-28T11:26:58.917Z,896.00
2023-02-28T11:27:58.933Z,917.00
2023-02-28T11:28:58.864Z,891.00
2023-02-28T11:29:58.946Z,914.00
2023-02-28T11:30:58.867Z,927.00
2023-02-28T11:31:58.886Z,925.00
2023-02-28T11:32:58.931Z,934.00
2023-02-28T11:33:58.826Z,930.00
2023-02-28T11:34:58.784Z,908.00
2023-02-28T11:35:58.812Z,934.00
2023-02-28T11:36:58.772Z,1003.00
2023-02-28T11:37:58.784Z,1019.00
2023-02-28T11:38:58.769Z,991.00
2023-02-28T11:39:58.742Z,974.00
2023-02-28T11:40:58.728Z,937.00
2023-02-28T11:41:58.729Z,945.00
2023-02-28T11:42:58.690Z,900.00
2023-02-28T11:43:58.731Z,898.00
2023-02-28T11:44:58.689Z,993.00
2023-02-28T11:45:58.678Z,1015.00
2023-02-28T11:46:58.670Z,1016.00
2023-02-28T11:47:58.646Z,1011.00
2023-02-28T11:48:58.608Z,1031.00
2023-02-28T11:49:58.663Z,1061.00
2023-02-28T11:50:58.589Z,1110.00
2023-02-28T11:51:58.593Z,1048.00
2023-02-28T11:52:58.562Z,1123.00
2023-02-28T11:53:58.612Z,1152.00
2023-02-28T11:54:58.535Z,1141.00
2023-02-28T11:55:58.606Z,1085.00
2023-02-28T11:56:58.519Z,1068.00
2023-02-28T11:57:58.534Z,1154.00
2023-02-28T11:58:58.486Z,1236.00
2023-02-28T11:59:58.506Z,1096.00
2023-02-28T12:00:58.471Z,1117.00
2023-02-28T12:01:58.511Z,961.00
2023-02-28T12:02:58.480Z,1041.00
2023-02-28T12:03:58.461Z,1006.00
2023-02-28T12:04:58.414Z,975.00
2023-02-28T12:05:58.436Z,980.00
2023-02-28T12:06:58.406Z,966.00
2023-02-28T12:07:58.444Z,919.00
2023-02-28T12:08:58.376Z,922.00
2023-02-28T12:09:58.373Z,886.00
2023-02-28T12:10:58.352Z,990.00
2023-02-28T12:11:58.388Z,1004.00
2023-02-28T12:12:58.366Z,1053.00
2023-02-28T12:13:58.322Z,1011.00
2023-02-28T12:14:58.294Z,883.00
2023-02-28T12:15:58.416Z,931.00
2023-02-28T12:16:58.283Z,964.00
2023-02-28T12:17:58.292Z,1034.00
2023-02-28T12:18:58.287Z,1116.00
2023-02-28T12:19:58.270Z,976.00
2023-02-28T12:20:58.252Z,1135.00
2023-02-28T12:21:58.229Z,1111.00
2023-02-28T12:22:58.191Z,1074.00
2023-02-28T12:23:58.211Z,1060.00
2023-02-28T12:24:58.188Z,1060.00
2023-02-28T12:25:58.179Z,1095.00
2023-02-28T12:26:58.148Z,1069.00
2023-02-28T12:27:58.166Z,1104.00
2023-02-28T12:28:58.147Z,1102.00
2023-02-28T12:29:58.124Z,1145.00
2023-02-28T12:30:58.112Z,1071.00
2023-02-28T12:31:58.173Z,1126.00
2023-02-28T12:32:58.070Z,1278.00
2023-02-28T12:33:58.094Z,1174.00
2023-02-28T12:34:58.177Z,1148.00
2023-02-28T12:35:58.080Z,1108.00
2023-02-28T12:36:58.020Z,1227.00
2023-02-28T12:37:58.039Z,1231.00
2023-02-28T12:38:58.002Z,1261.00
2023-02-28T12:39:58.009Z,1154.00
2023-02-28T12:40:58.007Z,1103.00
2023-02-28T12:41:57.997Z,1175.00
2023-02-28T12:42:57.952Z,1147.00
2023-02-28T12:43:57.957Z,1111.00
2023-02-28T12:44:57.921Z,1102.00
2023-02-28T12:45:58.083Z,1061.00
2023-02-28T12:46:57.926Z,997.00
2023-02-28T12:47:57.918Z,969.00
2023-02-28T12:48:57.949Z,1009.00